sensor_id;sensor_type;location;lat;lon;timestamp;pressure;altitude;pressure_sealevel;temperature;humidity
53550;BME280;67273;52.914;-0.982;2023-06-24T00:02:08;101902.75;;;23.09;53.61
53550;BME280;67273;52.914;-0.982;2023-06-24T00:04:36;101900.28;;;23.08;53.58
53550;BME280;67273;52.914;-0.982;2023-06-24T00:07:01;101899.44;;;23.07;53.65
53550;BME280;67273;52.914;-0.982;2023-06-24T00:09:28;101904.91;;;23.07;53.67
53550;BME280;67273;52.914;-0.982;2023-06-24T00:11:54;101905.16;;;23.06;53.71
53550;BME280;67273;52.914;-0.982;2023-06-24T00:14:20;101898.84;;;23.05;53.75
53550;BME280;67273;52.914;-0.982;2023-06-24T00:16:47;101900.53;;;23.06;53.57
53550;BME280;67273;52.914;-0.982;2023-06-24T00:19:23;101904.31;;;23.05;53.52
53550;BME280;67273;52.914;-0.982;2023-06-24T00:21:51;101903.50;;;23.05;53.54
53550;BME280;67273;52.914;-0.982;2023-06-24T00:24:17;101903.69;;;23.03;53.59
53550;BME280;67273;52.914;-0.982;2023-06-24T00:26:45;101910.00;;;23.04;53.52
53550;BME280;67273;52.914;-0.982;2023-06-24T00:29:11;101907.25;;;23.04;53.53
53550;BME280;67273;52.914;-0.982;2023-06-24T00:31:37;101914.91;;;23.02;53.64
53550;BME280;67273;52.914;-0.982;2023-06-24T00:34:04;101912.16;;;23.02;53.52
53550;BME280;67273;52.914;-0.982;2023-06-24T00:36:30;101915.72;;;23.02;53.51
53550;BME280;67273;52.914;-0.982;2023-06-24T00:38:59;101924.22;;;23.01;53.57
53550;BME280;67273;52.914;-0.982;2023-06-24T00:41:29;101920.38;;;23.02;53.27
53550;BME280;67273;52.914;-0.982;2023-06-24T00:43:55;101921.47;;;23.01;53.46
53550;BME280;67273;52.914;-0.982;2023-06-24T00:46:23;101920.63;;;23.00;53.57
53550;BME280;67273;52.914;-0.982;2023-06-24T00:48:50;101921.47;;;23.01;53.46
53550;BME280;67273;52.914;-0.982;2023-06-24T00:51:17;101924.44;;;22.99;53.50
53550;BME280;67273;52.914;-0.982;2023-06-24T00:53:46;101927.19;;;22.99;53.48
53550;BME280;67273;52.914;-0.982;2023-06-24T00:56:16;101920.03;;;22.98;53.47
53550;BME280;67273;52.914;-0.982;2023-06-24T00:58:44;101918.34;;;22.97;53.38
53550;BME280;67273;52.914;-0.982;2023-06-24T01:01:10;101912.84;;;22.97;53.26
53550;BME280;67273;52.914;-0.982;2023-06-24T01:03:37;101914.53;;;22.98;53.32
53550;BME280;67273;52.914;-0.982;2023-06-24T01:06:02;101917.50;;;22.96;53.36
53550;BME280;67273;52.914;-0.982;2023-06-24T01:08:28;101915.38;;;22.98;53.31
53550;BME280;67273;52.914;-0.982;2023-06-24T01:10:54;101911.81;;;22.98;53.24
53550;BME280;67273;52.914;-0.982;2023-06-24T01:13:21;101916.47;;;22.97;53.23
53550;BME280;67273;52.914;-0.982;2023-06-24T01:15:48;101915.38;;;22.98;53.28
53550;BME280;67273;52.914;-0.982;2023-06-24T01:18:21;101923.00;;;22.96;53.20
53550;BME280;67273;52.914;-0.982;2023-06-24T01:20:54;101918.34;;;22.97;53.31
53550;BME280;67273;52.914;-0.982;2023-06-24T01:23:44;101917.50;;;22.96;53.10
53550;BME280;67273;52.914;-0.982;2023-06-24T01:32:25;101927.88;;;22.94;53.33
53550;BME280;67273;52.914;-0.982;2023-06-24T01:34:57;101922.63;;;22.93;53.25
53550;BME280;67273;52.914;-0.982;2023-06-24T01:37:27;101927.88;;;22.94;53.32
53550;BME280;67273;52.914;-0.982;2023-06-24T01:39:57;101927.28;;;22.92;53.32
53550;BME280;67273;52.914;-0.982;2023-06-24T01:42:28;101927.28;;;22.92;53.32
53550;BME280;67273;52.914;-0.982;2023-06-24T01:44:56;101926.19;;;22.93;53.23
53550;BME280;67273;52.914;-0.982;2023-06-24T01:47:26;101919.06;;;22.92;53.34
53550;BME280;67273;52.914;-0.982;2023-06-24T01:49:57;101916.34;;;22.92;53.28
53550;BME280;67273;52.914;-0.982;2023-06-24T01:52:25;101914.66;;;22.91;53.16
53550;BME280;67273;52.914;-0.982;2023-06-24T01:54:56;101918.47;;;22.90;53.28
53550;BME280;67273;52.914;-0.982;2023-06-24T01:57:26;101925.63;;;22.91;53.28
53550;BME280;67273;52.914;-0.982;2023-06-24T01:59:53;101918.47;;;22.90;53.34
53550;BME280;67273;52.914;-0.982;2023-06-24T02:02:21;101922.28;;;22.89;53.17
53550;BME280;67273;52.914;-0.982;2023-06-24T02:04:49;101927.75;;;22.89;53.19
53550;BME280;67273;52.914;-0.982;2023-06-24T02:07:18;101927.75;;;22.89;53.18
53550;BME280;67273;52.914;-0.982;2023-06-24T02:09:48;101926.09;;;22.88;53.31
53550;BME280;67273;52.914;-0.982;2023-06-24T02:12:15;101927.75;;;22.89;53.19
53550;BME280;67273;52.914;-0.982;2023-06-24T02:14:41;101921.44;;;22.89;53.22
53550;BME280;67273;52.914;-0.982;2023-06-24T02:17:09;101921.69;;;22.87;53.12
53550;BME280;67273;52.914;-0.982;2023-06-24T02:19:37;101917.25;;;22.86;53.22
53550;BME280;67273;52.914;-0.982;2023-06-24T02:22:05;101918.94;;;22.87;53.15
53550;BME280;67273;52.914;-0.982;2023-06-24T02:24:39;101918.94;;;22.87;53.15
53550;BME280;67273;52.914;-0.982;2023-06-24T02:27:07;101920.00;;;22.86;53.21
53550;BME280;67273;52.914;-0.982;2023-06-24T02:29:34;101913.47;;;22.87;53.24
53550;BME280;67273;52.914;-0.982;2023-06-24T02:32:00;101909.03;;;22.86;53.18
53550;BME280;67273;52.914;-0.982;2023-06-24T02:34:26;101907.97;;;22.87;53.25
53550;BME280;67273;52.914;-0.982;2023-06-24T02:36:52;101907.97;;;22.87;53.17
53550;BME280;67273;52.914;-0.982;2023-06-24T02:39:20;101910.50;;;22.89;53.23
53550;BME280;67273;52.914;-0.982;2023-06-24T02:41:49;101899.75;;;22.87;53.14
53550;BME280;67273;52.914;-0.982;2023-06-24T02:44:15;101891.53;;;22.87;53.11
53550;BME280;67273;52.914;-0.982;2023-06-24T02:46:42;101888.81;;;22.87;53.14
53550;BME280;67273;52.914;-0.982;2023-06-24T02:49:10;101885.25;;;22.87;53.29
53550;BME280;67273;52.914;-0.982;2023-06-24T02:51:40;101888.22;;;22.85;53.19
53550;BME280;67273;52.914;-0.982;2023-06-24T02:54:07;101873.41;;;22.86;53.21
53550;BME280;67273;52.914;-0.982;2023-06-24T02:56:56;101869.03;;;22.85;53.31
53550;BME280;67273;52.914;-0.982;2023-06-24T02:59:34;101864.59;;;22.84;53.32
53550;BME280;67273;52.914;-0.982;2023-06-24T03:02:05;101859.13;;;22.84;53.31
53550;BME280;67273;52.914;-0.982;2023-06-24T03:04:34;101870.09;;;22.84;53.35
53550;BME280;67273;52.914;-0.982;2023-06-24T03:07:01;101862.97;;;22.83;53.35
53550;BME280;67273;52.914;-0.982;2023-06-24T03:09:34;101860.22;;;22.83;53.38
53550;BME280;67273;52.914;-0.982;2023-06-24T03:12:03;101865.69;;;22.83;53.30
53550;BME280;67273;52.914;-0.982;2023-06-24T03:14:40;101864.03;;;22.82;53.47
53550;BME280;67273;52.914;-0.982;2023-06-24T03:17:07;101864.84;;;22.83;53.42
53550;BME280;67273;52.914;-0.982;2023-06-24T03:19:34;101856.88;;;22.81;53.48
53550;BME280;67273;52.914;-0.982;2023-06-24T03:21:59;101857.47;;;22.83;53.45
53550;BME280;67273;52.914;-0.982;2023-06-24T03:24:25;101855.78;;;22.82;53.49
53550;BME280;67273;52.914;-0.982;2023-06-24T03:26:51;101850.31;;;22.82;53.46
53550;BME280;67273;52.914;-0.982;2023-06-24T03:29:25;101843.41;;;22.80;53.54
53550;BME280;67273;52.914;-0.982;2023-06-24T03:32:00;101853.28;;;22.81;53.48
53550;BME280;67273;52.914;-0.982;2023-06-24T03:34:27;101853.28;;;22.81;53.65
53550;BME280;67273;52.914;-0.982;2023-06-24T03:36:53;101844.25;;;22.80;53.45
53550;BME280;67273;52.914;-0.982;2023-06-24T03:39:22;101848.03;;;22.79;53.60
53550;BME280;67273;52.914;-0.982;2023-06-24T03:41:49;101851.88;;;22.78;53.60
53550;BME280;67273;52.914;-0.982;2023-06-24T03:44:15;101849.13;;;22.78;53.77
53550;BME280;67273;52.914;-0.982;2023-06-24T03:46:45;101847.47;;;22.77;53.67
53550;BME280;67273;52.914;-0.982;2023-06-24T03:49:12;101849.97;;;22.78;53.61
53550;BME280;67273;52.914;-0.982;2023-06-24T03:51:38;101850.78;;;22.79;53.54
53550;BME280;67273;52.914;-0.982;2023-06-24T03:54:05;101848.28;;;22.77;53.66
53550;BME280;67273;52.914;-0.982;2023-06-24T03:56:33;101848.28;;;22.77;53.71
53550;BME280;67273;52.914;-0.982;2023-06-24T03:58:59;101861.75;;;22.79;53.70
53550;BME280;67273;52.914;-0.982;2023-06-24T04:01:25;101857.94;;;22.80;53.47
53550;BME280;67273;52.914;-0.982;2023-06-24T04:03:52;101860.91;;;22.78;53.64
53550;BME280;67273;52.914;-0.982;2023-06-24T04:06:18;101861.75;;;22.79;53.48
53550;BME280;67273;52.914;-0.982;2023-06-24T04:08:45;101865.34;;;22.80;53.60
53550;BME280;67273;52.914;-0.982;2023-06-24T04:11:14;101867.22;;;22.79;53.54
53550;BME280;67273;52.914;-0.982;2023-06-24T04:13:42;101872.72;;;22.79;53.55
53550;BME280;67273;52.914;-0.982;2023-06-24T04:16:10;101872.47;;;22.81;53.46
53550;BME280;67273;52.914;-0.982;2023-06-24T04:18:36;101868.91;;;22.80;53.59
53550;BME280;67273;52.914;-0.982;2023-06-24T04:21:09;101877.34;;;22.78;53.60
53550;BME280;67273;52.914;-0.982;2023-06-24T04:23:38;101872.72;;;22.79;53.53
53550;BME280;67273;52.914;-0.982;2023-06-24T04:26:05;101878.19;;;22.79;53.58
53550;BME280;67273;52.914;-0.982;2023-06-24T04:28:32;101880.69;;;22.81;53.49
53550;BME280;67273;52.914;-0.982;2023-06-24T04:31:00;101885.34;;;22.80;53.54
53550;BME280;67273;52.914;-0.982;2023-06-24T04:33:27;101889.16;;;22.79;53.59
53550;BME280;67273;52.914;-0.982;2023-06-24T04:35:54;101890.00;;;22.80;53.43
53550;BME280;67273;52.914;-0.982;2023-06-24T04:38:21;101896.31;;;22.80;53.41
53550;BME280;67273;52.914;-0.982;2023-06-24T04:40:48;101890.81;;;22.80;53.52
53550;BME280;67273;52.914;-0.982;2023-06-24T04:43:14;101896.31;;;22.80;53.36
53550;BME280;67273;52.914;-0.982;2023-06-24T04:45:40;101889.16;;;22.79;53.60
53550;BME280;67273;52.914;-0.982;2023-06-24T04:48:06;101892.97;;;22.78;53.53
53550;BME280;67273;52.914;-0.982;2023-06-24T04:50:31;101892.13;;;22.77;53.61
53550;BME280;67273;52.914;-0.982;2023-06-24T04:52:57;101892.13;;;22.77;53.55
53550;BME280;67273;52.914;-0.982;2023-06-24T04:55:25;101895.13;;;22.76;53.57
53550;BME280;67273;52.914;-0.982;2023-06-24T04:57:50;101902.25;;;22.77;53.55
53550;BME280;67273;52.914;-0.982;2023-06-24T05:00:16;101888.56;;;22.77;53.62
53550;BME280;67273;52.914;-0.982;2023-06-24T05:02:47;101894.03;;;22.77;53.68
53550;BME280;67273;52.914;-0.982;2023-06-24T05:05:15;101886.63;;;22.77;53.61
53550;BME280;67273;52.914;-0.982;2023-06-24T05:07:42;101888.56;;;22.77;53.54
53550;BME280;67273;52.914;-0.982;2023-06-24T05:10:09;101888.56;;;22.77;53.50
53550;BME280;67273;52.914;-0.982;2023-06-24T05:12:38;101887.50;;;22.78;53.42
53550;BME280;67273;52.914;-0.982;2023-06-24T05:15:04;101887.50;;;22.78;53.52
53550;BME280;67273;52.914;-0.982;2023-06-24T05:17:30;101890.22;;;22.78;53.49
53550;BME280;67273;52.914;-0.982;2023-06-24T05:19:55;101892.97;;;22.78;53.53
53550;BME280;67273;52.914;-0.982;2023-06-24T05:22:23;101891.06;;;22.78;53.50
53550;BME280;67273;52.914;-0.982;2023-06-24T05:24:51;101890.22;;;22.78;53.55
53550;BME280;67273;52.914;-0.982;2023-06-24T05:27:18;101890.81;;;22.80;53.63
53550;BME280;67273;52.914;-0.982;2023-06-24T05:29:45;101892.25;;;22.71;54.36
53550;BME280;67273;52.914;-0.982;2023-06-24T05:32:11;101889.38;;;22.66;54.51
53550;BME280;67273;52.914;-0.982;2023-06-24T05:34:37;101887.13;;;22.63;54.81
53550;BME280;67273;52.914;-0.982;2023-06-24T05:37:04;101886.06;;;22.64;54.70
53550;BME280;67273;52.914;-0.982;2023-06-24T05:39:31;101895.94;;;22.65;54.68
53550;BME280;67273;52.914;-0.982;2023-06-24T05:41:57;101898.06;;;22.63;54.65
53550;BME280;67273;52.914;-0.982;2023-06-24T05:44:23;101896.88;;;22.58;55.13
53550;BME280;67273;52.914;-0.982;2023-06-24T05:46:52;101903.41;;;22.57;55.08
53550;BME280;67273;52.914;-0.982;2023-06-24T05:49:21;101901.28;;;22.59;55.14
53550;BME280;67273;52.914;-0.982;2023-06-24T05:51:51;101904.63;;;22.62;55.09
53550;BME280;67273;52.914;-0.982;2023-06-24T05:54:19;101903.31;;;22.64;55.15
53550;BME280;67273;52.914;-0.982;2023-06-24T05:56:48;101903.53;;;22.63;55.10
53550;BME280;67273;52.914;-0.982;2023-06-24T05:59:15;101908.44;;;22.61;55.29
53550;BME280;67273;52.914;-0.982;2023-06-24T06:01:40;101901.28;;;22.59;55.36
53550;BME280;67273;52.914;-0.982;2023-06-24T06:04:08;101904.38;;;22.63;55.11
53550;BME280;67273;52.914;-0.982;2023-06-24T06:06:34;101903.53;;;22.63;55.35
53550;BME280;67273;52.914;-0.982;2023-06-24T06:08:59;101910.94;;;22.62;55.23
53550;BME280;67273;52.914;-0.982;2023-06-24T06:11:25;101907.38;;;22.62;55.33
53550;BME280;67273;52.914;-0.982;2023-06-24T06:13:51;101914.28;;;22.64;55.35
53550;BME280;67273;52.914;-0.982;2023-06-24T06:16:18;101911.78;;;22.63;55.18
53550;BME280;67273;52.914;-0.982;2023-06-24T06:18:43;101919.97;;;22.63;55.48
53550;BME280;67273;52.914;-0.982;2023-06-24T06:21:10;101916.41;;;22.62;55.75
53550;BME280;67273;52.914;-0.982;2023-06-24T06:23:36;101910.94;;;22.62;55.69
53550;BME280;67273;52.914;-0.982;2023-06-24T06:26:02;101922.25;;;22.66;55.50
53550;BME280;67273;52.914;-0.982;2023-06-24T06:28:28;101918.69;;;22.65;55.73
53550;BME280;67273;52.914;-0.982;2023-06-24T06:30:54;101918.06;;;22.63;56.09
53550;BME280;67273;52.914;-0.982;2023-06-24T06:33:20;101922.38;;;22.59;56.32
53550;BME280;67273;52.914;-0.982;2023-06-24T06:35:45;101932.84;;;22.62;56.15
53550;BME280;67273;52.914;-0.982;2023-06-24T06:38:12;101939.75;;;22.65;56.16
53550;BME280;67273;52.914;-0.982;2023-06-24T06:40:38;101939.53;;;22.66;55.93
53550;BME280;67273;52.914;-0.982;2023-06-24T06:43:04;101942.03;;;22.68;55.98
53550;BME280;67273;52.914;-0.982;2023-06-24T06:45:30;101945.38;;;22.70;55.66
53550;BME280;67273;52.914;-0.982;2023-06-24T06:47:55;101938.59;;;22.72;55.68
53550;BME280;67273;52.914;-0.982;2023-06-24T06:50:21;101955.84;;;22.73;55.96
53550;BME280;67273;52.914;-0.982;2023-06-24T06:52:47;101946.44;;;22.69;56.48
53550;BME280;67273;52.914;-0.982;2023-06-24T06:55:14;101954.41;;;22.70;56.33
53550;BME280;67273;52.914;-0.982;2023-06-24T06:57:40;101950.38;;;22.73;56.47
53550;BME280;67273;52.914;-0.982;2023-06-24T07:00:07;101945.72;;;22.73;55.93
53550;BME280;67273;52.914;-0.982;2023-06-24T07:02:33;101948.69;;;22.72;56.47
53550;BME280;67273;52.914;-0.982;2023-06-24T07:04:59;101939.88;;;22.70;56.68
53550;BME280;67273;52.914;-0.982;2023-06-24T07:07:26;101943.22;;;22.72;56.51
53550;BME280;67273;52.914;-0.982;2023-06-24T07:09:55;101948.47;;;22.73;56.44
53550;BME280;67273;52.914;-0.982;2023-06-24T07:12:23;101951.56;;;22.77;56.55
53550;BME280;67273;52.914;-0.982;2023-06-24T07:14:50;101959.31;;;22.80;56.12
53550;BME280;67273;52.914;-0.982;2023-06-24T07:17:16;101962.66;;;22.82;56.11
53550;BME280;67273;52.914;-0.982;2023-06-24T07:19:41;101967.09;;;22.83;56.00
53550;BME280;67273;52.914;-0.982;2023-06-24T07:22:07;101967.09;;;22.83;55.94
53550;BME280;67273;52.914;-0.982;2023-06-24T07:24:33;101970.41;;;22.85;55.93
53550;BME280;67273;52.914;-0.982;2023-06-24T07:26:59;101966.59;;;22.86;55.69
53550;BME280;67273;52.914;-0.982;2023-06-24T07:29:26;101970.41;;;22.85;55.68
53550;BME280;67273;52.914;-0.982;2023-06-24T07:31:52;101970.41;;;22.85;55.45
53550;BME280;67273;52.914;-0.982;2023-06-24T07:34:18;101970.19;;;22.87;55.54
53550;BME280;67273;52.914;-0.982;2023-06-24T07:36:44;101966.59;;;22.86;55.47
53550;BME280;67273;52.914;-0.982;2023-06-24T07:39:10;101972.06;;;22.86;55.47
53550;BME280;67273;52.914;-0.982;2023-06-24T07:41:43;101972.94;;;22.87;55.39
53550;BME280;67273;52.914;-0.982;2023-06-24T07:44:09;101979.22;;;22.87;55.45
53550;BME280;67273;52.914;-0.982;2023-06-24T07:46:36;101968.28;;;22.87;55.42
53550;BME280;67273;52.914;-0.982;2023-06-24T07:49:02;101970.78;;;22.89;55.32
53550;BME280;67273;52.914;-0.982;2023-06-24T07:51:28;101967.22;;;22.88;55.25
53550;BME280;67273;52.914;-0.982;2023-06-24T07:53:53;101966.13;;;22.89;55.42
53550;BME280;67273;52.914;-0.982;2023-06-24T07:56:22;101973.28;;;22.90;55.23
53550;BME280;67273;52.914;-0.982;2023-06-24T07:58:48;101972.44;;;22.90;55.17
53550;BME280;67273;52.914;-0.982;2023-06-24T08:01:14;101974.94;;;22.91;55.17
53550;BME280;67273;52.914;-0.982;2023-06-24T08:03:41;101976.25;;;22.89;55.19
53550;BME280;67273;52.914;-0.982;2023-06-24T08:06:07;101972.19;;;22.91;55.16
53550;BME280;67273;52.914;-0.982;2023-06-24T08:08:33;101966.94;;;22.90;55.16
53550;BME280;67273;52.914;-0.982;2023-06-24T08:10:59;101969.09;;;22.88;55.06
53550;BME280;67273;52.914;-0.982;2023-06-24T08:13:25;101974.72;;;22.93;55.06
53550;BME280;67273;52.914;-0.982;2023-06-24T08:15:50;101978.28;;;22.93;55.02
53550;BME280;67273;52.914;-0.982;2023-06-24T08:18:16;101978.28;;;22.93;55.13
53550;BME280;67273;52.914;-0.982;2023-06-24T08:20:43;101976.38;;;22.94;54.99
53550;BME280;67273;52.914;-0.982;2023-06-24T08:23:09;101972.78;;;22.93;55.07
53550;BME280;67273;52.914;-0.982;2023-06-24T08:25:35;101969.00;;;22.94;54.99
53550;BME280;67273;52.914;-0.982;2023-06-24T08:28:00;101972.56;;;22.95;55.25
53550;BME280;67273;52.914;-0.982;2023-06-24T08:30:26;101966.03;;;22.96;55.25
53550;BME280;67273;52.914;-0.982;2023-06-24T08:32:52;101966.03;;;22.96;55.24
53550;BME280;67273;52.914;-0.982;2023-06-24T08:35:18;101976.38;;;22.94;55.17
53550;BME280;67273;52.914;-0.982;2023-06-24T08:37:45;101972.31;;;22.96;55.15
53550;BME280;67273;52.914;-0.982;2023-06-24T08:40:11;101967.94;;;22.95;55.02
53550;BME280;67273;52.914;-0.982;2023-06-24T08:42:37;101966.84;;;22.96;55.17
53550;BME280;67273;52.914;-0.982;2023-06-24T08:45:03;101973.16;;;22.97;54.99
53550;BME280;67273;52.914;-0.982;2023-06-24T08:47:30;101973.16;;;22.97;55.08
53550;BME280;67273;52.914;-0.982;2023-06-24T08:50:01;101973.16;;;22.97;54.94
53550;BME280;67273;52.914;-0.982;2023-06-24T08:52:30;101964.69;;;22.98;54.99
53550;BME280;67273;52.914;-0.982;2023-06-24T08:54:59;101967.44;;;22.98;55.02
53550;BME280;67273;52.914;-0.982;2023-06-24T08:57:25;101960.91;;;23.00;55.18
53550;BME280;67273;52.914;-0.982;2023-06-24T08:59:51;101964.69;;;22.98;55.30
53550;BME280;67273;52.914;-0.982;2023-06-24T09:02:16;101970.19;;;22.98;55.04
53550;BME280;67273;52.914;-0.982;2023-06-24T09:04:42;101964.69;;;22.98;55.11
53550;BME280;67273;52.914;-0.982;2023-06-24T09:07:08;101966.16;;;23.01;54.91
53550;BME280;67273;52.914;-0.982;2023-06-24T09:09:41;101962.59;;;23.01;55.17
53550;BME280;67273;52.914;-0.982;2023-06-24T09:12:12;101964.22;;;23.02;55.14
53550;BME280;67273;52.914;-0.982;2023-06-24T09:14:38;101949.94;;;23.00;55.24
53550;BME280;67273;52.914;-0.982;2023-06-24T09:17:04;101944.44;;;23.00;55.18
53550;BME280;67273;52.914;-0.982;2023-06-24T09:19:30;101949.47;;;23.03;55.10
53550;BME280;67273;52.914;-0.982;2023-06-24T09:22:01;101958.75;;;23.02;55.17
53550;BME280;67273;52.914;-0.982;2023-06-24T09:24:29;101959.34;;;23.04;55.19
53550;BME280;67273;52.914;-0.982;2023-06-24T09:26:56;101957.69;;;23.03;55.09
53550;BME280;67273;52.914;-0.982;2023-06-24T09:29:26;101954.94;;;23.03;55.10
53550;BME280;67273;52.914;-0.982;2023-06-24T09:31:53;101951.13;;;23.04;55.09
53550;BME280;67273;52.914;-0.982;2023-06-24T09:34:20;101953.84;;;23.04;55.07
53550;BME280;67273;52.914;-0.982;2023-06-24T09:36:51;101949.25;;;23.04;55.15
53550;BME280;67273;52.914;-0.982;2023-06-24T09:39:18;101956.41;;;23.05;55.18
53550;BME280;67273;52.914;-0.982;2023-06-24T09:41:48;101949.00;;;23.06;55.07
53550;BME280;67273;52.914;-0.982;2023-06-24T09:44:16;101942.91;;;23.04;55.07
53550;BME280;67273;52.914;-0.982;2023-06-24T09:46:43;101944.38;;;23.06;55.04
53550;BME280;67273;52.914;-0.982;2023-06-24T09:49:09;101938.91;;;23.06;55.13
53550;BME280;67273;52.914;-0.982;2023-06-24T09:51:38;101936.97;;;23.07;55.07
53550;BME280;67273;52.914;-0.982;2023-06-24T09:54:05;101930.91;;;23.05;55.06
53550;BME280;67273;52.914;-0.982;2023-06-24T09:56:32;101937.81;;;23.07;54.88
53550;BME280;67273;52.914;-0.982;2023-06-24T09:58:59;101941.41;;;23.08;54.95
53550;BME280;67273;52.914;-0.982;2023-06-24T10:01:25;101932.09;;;23.09;55.07
53550;BME280;67273;52.914;-0.982;2023-06-24T10:03:52;101930.16;;;23.09;54.97
53550;BME280;67273;52.914;-0.982;2023-06-24T10:06:18;101931.03;;;23.10;55.11
53550;BME280;67273;52.914;-0.982;2023-06-24T10:08:45;101928.28;;;23.10;55.21
53550;BME280;67273;52.914;-0.982;2023-06-24T10:11:11;101922.81;;;23.10;55.21
53550;BME280;67273;52.914;-0.982;2023-06-24T10:13:36;101918.16;;;23.10;55.28
53550;BME280;67273;52.914;-0.982;2023-06-24T10:16:03;101922.81;;;23.10;55.30
53550;BME280;67273;52.914;-0.982;2023-06-24T10:18:33;101920.06;;;23.10;55.45
53550;BME280;67273;52.914;-0.982;2023-06-24T10:21:01;101924.44;;;23.11;55.22
53550;BME280;67273;52.914;-0.982;2023-06-24T10:25:58;101914.34;;;23.11;55.30
53550;BME280;67273;52.914;-0.982;2023-06-24T10:28:24;101918.97;;;23.11;55.32
53550;BME280;67273;52.914;-0.982;2023-06-24T10:30:54;101907.41;;;23.09;55.10
53550;BME280;67273;52.914;-0.982;2023-06-24T10:33:20;101913.50;;;23.11;55.29
53550;BME280;67273;52.914;-0.982;2023-06-24T10:35:46;101912.44;;;23.12;55.26
53550;BME280;67273;52.914;-0.982;2023-06-24T10:38:13;101912.44;;;23.12;55.06
53550;BME280;67273;52.914;-0.982;2023-06-24T10:40:42;101909.69;;;23.12;55.28
53550;BME280;67273;52.914;-0.982;2023-06-24T10:43:25;101909.44;;;23.13;55.27
53550;BME280;67273;52.914;-0.982;2023-06-24T10:45:53;101912.19;;;23.13;55.15
53550;BME280;67273;52.914;-0.982;2023-06-24T10:48:19;101906.72;;;23.13;55.23
53550;BME280;67273;52.914;-0.982;2023-06-24T10:50:48;101907.53;;;23.14;55.36
53550;BME280;67273;52.914;-0.982;2023-06-24T10:53:16;101902.06;;;23.14;55.28
53550;BME280;67273;52.914;-0.982;2023-06-24T10:55:44;101891.91;;;23.14;55.25
53550;BME280;67273;52.914;-0.982;2023-06-24T10:58:12;101888.94;;;23.16;55.20
53550;BME280;67273;52.914;-0.982;2023-06-24T11:00:39;101890.84;;;23.15;55.39
53550;BME280;67273;52.914;-0.982;2023-06-24T11:03:09;101892.78;;;23.15;55.56
53550;BME280;67273;52.914;-0.982;2023-06-24T11:05:38;101896.09;;;23.17;55.50
53550;BME280;67273;52.914;-0.982;2023-06-24T11:08:05;101896.34;;;23.15;55.42
53550;BME280;67273;52.914;-0.982;2023-06-24T11:10:32;101893.34;;;23.17;55.55
53550;BME280;67273;52.914;-0.982;2023-06-24T11:13:04;101895.00;;;23.18;55.63
53550;BME280;67273;52.914;-0.982;2023-06-24T11:15:31;101897.75;;;23.18;55.58
53550;BME280;67273;52.914;-0.982;2023-06-24T11:17:57;101903.22;;;23.18;55.64
53550;BME280;67273;52.914;-0.982;2023-06-24T11:20:23;101899.44;;;23.19;55.65
53550;BME280;67273;52.914;-0.982;2023-06-24T11:22:49;101900.50;;;23.18;55.82
53550;BME280;67273;52.914;-0.982;2023-06-24T11:25:15;101904.91;;;23.19;55.66
53550;BME280;67273;52.914;-0.982;2023-06-24T11:27:42;101907.66;;;23.19;55.74
53550;BME280;67273;52.914;-0.982;2023-06-24T11:30:08;101902.75;;;23.21;55.93
53550;BME280;67273;52.914;-0.982;2023-06-24T11:32:35;101901.69;;;23.22;55.52
53550;BME280;67273;52.914;-0.982;2023-06-24T11:35:01;101907.19;;;23.22;55.67
53550;BME280;67273;52.914;-0.982;2023-06-24T11:37:31;101890.13;;;23.20;55.57
53550;BME280;67273;52.914;-0.982;2023-06-24T11:40:01;101911.56;;;23.23;55.73
53550;BME280;67273;52.914;-0.982;2023-06-24T11:42:30;101912.44;;;23.24;55.61
53550;BME280;67273;52.914;-0.982;2023-06-24T11:45:00;101909.69;;;23.24;55.64
53550;BME280;67273;52.914;-0.982;2023-06-24T11:47:30;101910.50;;;23.24;55.73
53550;BME280;67273;52.914;-0.982;2023-06-24T11:49:57;101903.94;;;23.25;55.57
53550;BME280;67273;52.914;-0.982;2023-06-24T11:52:31;101899.31;;;23.26;55.65
53550;BME280;67273;52.914;-0.982;2023-06-24T11:54:57;101901.81;;;23.27;55.62
53550;BME280;67273;52.914;-0.982;2023-06-24T11:57:56;101899.06;;;23.27;55.75
53550;BME280;67273;52.914;-0.982;2023-06-24T12:00:24;101896.34;;;23.27;55.82
53550;BME280;67273;52.914;-0.982;2023-06-24T12:02:52;101892.50;;;23.28;55.74
53550;BME280;67273;52.914;-0.982;2023-06-24T12:05:23;101883.44;;;23.28;55.87
53550;BME280;67273;52.914;-0.982;2023-06-24T12:07:54;101882.34;;;23.29;55.78
53550;BME280;67273;52.914;-0.982;2023-06-24T12:10:20;101886.19;;;23.28;55.77
53550;BME280;67273;52.914;-0.982;2023-06-24T12:12:46;101882.13;;;23.30;55.69
53550;BME280;67273;52.914;-0.982;2023-06-24T12:15:11;101877.72;;;23.29;55.72
53550;BME280;67273;52.914;-0.982;2023-06-24T12:17:38;101885.94;;;23.29;55.89
53550;BME280;67273;52.914;-0.982;2023-06-24T12:20:05;101882.97;;;23.31;55.89
53550;BME280;67273;52.914;-0.982;2023-06-24T12:22:31;101888.47;;;23.31;55.82
53550;BME280;67273;52.914;-0.982;2023-06-24T12:24:57;101879.38;;;23.30;55.77
53550;BME280;67273;52.914;-0.982;2023-06-24T12:27:23;101876.41;;;23.32;55.79
53550;BME280;67273;52.914;-0.982;2023-06-24T12:29:48;101879.97;;;23.32;55.69
53550;BME280;67273;52.914;-0.982;2023-06-24T12:32:14;101875.34;;;23.33;55.78
53550;BME280;67273;52.914;-0.982;2023-06-24T12:34:41;101863.50;;;23.32;55.73
53550;BME280;67273;52.914;-0.982;2023-06-24T12:37:07;101862.44;;;23.33;55.72
53550;BME280;67273;52.914;-0.982;2023-06-24T12:39:33;101863.28;;;23.34;55.79
53550;BME280;67273;52.914;-0.982;2023-06-24T12:41:58;101869.63;;;23.34;55.65
53550;BME280;67273;52.914;-0.982;2023-06-24T12:44:24;101870.44;;;23.35;55.67
53550;BME280;67273;52.914;-0.982;2023-06-24T12:46:50;101864.94;;;23.35;55.55
53550;BME280;67273;52.914;-0.982;2023-06-24T12:49:15;101865.78;;;23.35;55.53
53550;BME280;67273;52.914;-0.982;2023-06-24T12:51:42;101871.25;;;23.35;55.55